If you wish to contribute or participate in the discussions about articles you are invited to join SKYbrary as a registered user

 Actions

Murcia–San Javier Airport

From SKYbrary Wiki

LELC
Airport
ICAO: LELC – IATA: MJV
Summary
Name Murcia–San Javier Airport
Region Europe
Territory Spain ES.gif
Location San Javier, Murcia
Serving Murcia
Elevation 3.353 m
11 ft3.353 m
Coordinates 37° 46' 28.99" N, 0° 48' 43.99" W
Runways
Designator Length Width Surface ROPS
5/23 2300 m7,545.932 ft
60 m196.85 ft
ASP no/no
05L/23R 874 m2,867.454 ft
60 m196.85 ft
GRS yes/yes
14/32 800 m2,624.672 ft
60 m196.85 ft
GRS /


METAR
Observation LELC 252200Z AUTO 26003KT 200V350 CAVOK 16/04 Q1018
Station Murcia / San Javier
Date/Time 25 February 2020 22:00:00
Wind direction 260°
Wind speed 03 kts
Lowest cloud amount clouds and visibility OK
Temperature 16°C
Dew point 4°C
Humidity 44%
QNH 1018 hPa
Weather condition n/a

Murcia–San Javier Airport is a military air base and former civilian passenger airport located in San Javier, 42 km22.678 nm
42,000 m
137,795.276 ft
southeast of Murcia, Spain. It is owned by the Spanish Air Force. It was replaced (after several delays) by the new Región de Murcia International Airport, when it opened on 15 January 2019.

Climatology

Semi-arid climate (Köppen climate classification BSh).

Maps

Terrain

Loading map...

Airport Layout

Loading map...


Accidents & Serious Incidents at or in vicinity of LELC

None on SKYbrary